createdAt,value
2023-04-26T00:02:24.700Z,73.70
2023-04-26T00:04:56.290Z,73.80
2023-04-26T00:07:25.008Z,73.80
2023-04-26T00:09:53.268Z,73.90
2023-04-26T00:12:22.110Z,74.10
2023-04-26T00:14:51.724Z,74.00
2023-04-26T00:17:19.744Z,74.20
2023-04-26T00:19:47.907Z,74.40
2023-04-26T00:22:16.254Z,74.30
2023-04-26T00:24:44.453Z,74.30
2023-04-26T00:27:12.634Z,74.40
2023-04-26T00:29:41.458Z,74.60
2023-04-26T00:32:11.054Z,74.70
2023-04-26T00:34:39.518Z,74.70
2023-04-26T00:37:07.869Z,74.70
2023-04-26T00:39:35.893Z,74.90
2023-04-26T00:42:03.957Z,75.10
2023-04-26T00:44:32.010Z,75.10
2023-04-26T00:47:00.406Z,75.20
2023-04-26T00:49:29.996Z,75.20
2023-04-26T00:51:58.734Z,75.40
2023-04-26T00:54:27.157Z,75.50
2023-04-26T00:56:55.852Z,75.50
2023-04-26T00:59:24.429Z,75.60
2023-04-26T01:01:52.990Z,75.70
2023-04-26T01:04:21.557Z,75.70
2023-04-26T01:06:51.139Z,75.70
2023-04-26T01:09:19.922Z,75.60
2023-04-26T01:11:48.714Z,75.70
2023-04-26T01:14:16.953Z,75.70
2023-04-26T01:16:47.421Z,75.70
2023-04-26T01:19:16.666Z,75.70
2023-04-26T01:21:46.859Z,75.70
2023-04-26T01:24:16.809Z,75.70
2023-04-26T01:26:46.396Z,75.60
2023-04-26T01:29:17.036Z,75.70
2023-04-26T01:31:45.525Z,75.90
2023-04-26T01:34:13.771Z,76.00
2023-04-26T01:36:42.525Z,76.00
2023-04-26T01:39:10.692Z,76.10
2023-04-26T01:41:40.057Z,76.30
2023-04-26T01:44:08.269Z,76.30
2023-04-26T01:46:36.456Z,76.30
2023-04-26T01:49:04.640Z,76.30
2023-04-26T01:51:32.641Z,76.50
2023-04-26T01:54:00.793Z,76.60
2023-04-26T01:56:28.838Z,76.60
2023-04-26T01:58:59.155Z,76.80
2023-04-26T02:01:27.321Z,76.80
2023-04-26T02:03:55.424Z,76.90
2023-04-26T02:06:23.385Z,77.00
2023-04-26T02:08:53.254Z,77.10
2023-04-26T02:11:21.506Z,77.10
2023-04-26T02:13:49.616Z,77.10
2023-04-26T02:16:22.894Z,77.20
2023-04-26T02:18:51.104Z,77.10
2023-04-26T02:21:19.326Z,77.20
2023-04-26T02:23:48.047Z,77.20
2023-04-26T02:26:16.242Z,77.20
2023-04-26T02:28:45.234Z,77.50
2023-04-26T02:31:14.991Z,77.60
2023-04-26T02:33:44.504Z,77.80
2023-04-26T02:36:13.429Z,77.70
2023-04-26T02:38:41.718Z,77.80
2023-04-26T02:41:10.019Z,77.80
2023-04-26T02:43:38.142Z,77.90
2023-04-26T02:46:08.831Z,77.80
2023-04-26T02:48:37.940Z,77.90
2023-04-26T02:51:07.747Z,78.10
2023-04-26T02:53:35.896Z,78.10
2023-04-26T02:56:04.005Z,77.90
2023-04-26T02:58:32.062Z,78.20
2023-04-26T03:01:01.674Z,78.10
2023-04-26T03:03:31.004Z,78.10
2023-04-26T03:05:59.249Z,78.00
2023-04-26T03:08:28.744Z,77.80
2023-04-26T03:10:56.802Z,77.80
2023-04-26T03:13:24.961Z,77.90
2023-04-26T03:15:55.628Z,77.80
2023-04-26T03:18:23.850Z,77.90
2023-04-26T03:20:53.097Z,77.90
2023-04-26T03:23:24.170Z,78.00
2023-04-26T03:25:53.836Z,78.10
2023-04-26T03:28:21.973Z,78.10
2023-04-26T03:30:50.882Z,78.10
2023-04-26T03:33:19.157Z,78.20
2023-04-26T03:35:47.412Z,78.30
2023-04-26T03:38:15.620Z,78.20
2023-04-26T03:40:43.613Z,78.30
2023-04-26T03:43:13.634Z,78.40
2023-04-26T03:45:41.679Z,78.70
2023-04-26T03:48:09.708Z,78.90
2023-04-26T03:50:38.028Z,78.70
2023-04-26T03:53:06.720Z,78.60
2023-04-26T03:55:34.708Z,78.80
2023-04-26T03:58:03.285Z,78.80
2023-04-26T04:00:32.959Z,78.70
2023-04-26T04:03:01.217Z,78.80
2023-04-26T04:05:29.392Z,78.80
2023-04-26T04:07:59.125Z,79.00
2023-04-26T04:10:27.508Z,79.20
2023-04-26T04:12:56.167Z,79.00
2023-04-26T04:15:24.587Z,79.00
2023-04-26T04:17:54.005Z,78.80
2023-04-26T04:20:22.651Z,78.80
2023-04-26T04:22:51.304Z,78.70
2023-04-26T04:25:21.249Z,78.60
2023-04-26T04:27:50.256Z,78.60
2023-04-26T04:30:18.611Z,78.70
2023-04-26T04:32:46.895Z,78.60
2023-04-26T04:35:18.848Z,78.70
2023-04-26T04:37:47.318Z,78.90
2023-04-26T04:40:15.976Z,79.00
2023-04-26T04:42:46.818Z,79.30
2023-04-26T04:45:17.475Z,79.30
2023-04-26T04:47:46.369Z,79.70
2023-04-26T04:50:14.623Z,79.80
2023-04-26T04:52:45.232Z,80.30
2023-04-26T04:55:13.476Z,80.20
2023-04-26T04:57:43.224Z,80.60
2023-04-26T05:00:12.919Z,80.90
2023-04-26T05:03:03.932Z,80.90
2023-04-26T05:05:32.747Z,80.70
2023-04-26T05:08:02.143Z,80.80
2023-04-26T05:10:30.502Z,80.80
2023-04-26T05:12:58.491Z,80.80
2023-04-26T05:15:26.612Z,80.70
2023-04-26T05:17:55.832Z,80.80
2023-04-26T05:20:25.494Z,80.90
2023-04-26T05:22:53.639Z,80.80
2023-04-26T05:25:23.119Z,80.70
2023-04-26T05:27:56.924Z,80.60
2023-04-26T05:30:47.528Z,80.30
2023-04-26T05:33:27.666Z,80.30
2023-04-26T05:36:12.709Z,80.20
2023-04-26T05:38:41.411Z,80.10
2023-04-26T05:41:10.807Z,80.10
2023-04-26T05:43:40.401Z,80.10
2023-04-26T05:46:08.430Z,80.00
2023-04-26T05:48:36.523Z,80.10
2023-04-26T05:51:04.725Z,80.10
2023-04-26T05:53:33.700Z,80.20
2023-04-26T05:56:02.142Z,80.30
2023-04-26T05:58:33.627Z,80.10
2023-04-26T06:01:02.374Z,79.90
2023-04-26T06:03:30.811Z,79.90
2023-04-26T06:06:00.460Z,79.90
2023-04-26T06:08:29.253Z,80.00
2023-04-26T06:10:57.358Z,80.40
2023-04-26T06:13:26.124Z,80.20
2023-04-26T06:15:56.057Z,80.10
2023-04-26T06:18:24.044Z,80.00
2023-04-26T06:20:52.905Z,79.90
2023-04-26T06:23:21.735Z,79.60
2023-04-26T06:25:50.225Z,79.50
2023-04-26T06:28:18.194Z,79.40
2023-04-26T06:30:47.959Z,79.20
2023-04-26T06:33:17.386Z,79.40
2023-04-26T06:35:46.491Z,79.30
2023-04-26T06:38:14.963Z,79.10
2023-04-26T06:40:43.888Z,79.30
2023-04-26T06:43:12.170Z,79.00
2023-04-26T06:45:45.798Z,78.90
2023-04-26T06:48:13.921Z,78.80
2023-04-26T06:50:43.257Z,79.10
2023-04-26T06:53:11.197Z,79.20
2023-04-26T06:55:39.165Z,79.20
2023-04-26T06:58:07.100Z,77.30
2023-04-26T07:00:35.635Z,76.80
2023-04-26T07:03:03.858Z,77.50
2023-04-26T07:05:32.017Z,77.30
2023-04-26T07:08:01.291Z,77.70
2023-04-26T07:10:29.246Z,78.10
2023-04-26T07:12:57.297Z,78.40
2023-04-26T07:15:25.370Z,78.80
2023-04-26T07:17:53.442Z,79.00
2023-04-26T07:20:22.712Z,78.60
2023-04-26T07:22:50.893Z,78.30
2023-04-26T07:25:20.889Z,76.80
2023-04-26T07:27:51.616Z,77.20
2023-04-26T07:30:19.550Z,77.50
2023-04-26T07:32:47.626Z,75.00
2023-04-26T07:35:16.746Z,75.50
2023-04-26T07:37:45.193Z,75.70
2023-04-26T07:40:14.885Z,74.50
2023-04-26T07:42:44.200Z,75.10
2023-04-26T07:45:13.201Z,73.20
2023-04-26T07:47:41.163Z,73.80
2023-04-26T07:50:11.199Z,74.90
2023-04-26T07:52:39.520Z,73.70
2023-04-26T07:55:08.396Z,73.00
2023-04-26T07:57:36.368Z,73.90
2023-04-26T08:00:09.679Z,73.60
2023-04-26T08:02:44.897Z,72.90
2023-04-26T08:05:13.528Z,70.90
2023-04-26T08:07:42.336Z,70.40
2023-04-26T08:10:11.371Z,70.60
2023-04-26T08:12:39.992Z,70.90
2023-04-26T08:15:11.035Z,71.00
2023-04-26T08:17:39.057Z,72.10
2023-04-26T08:20:09.609Z,72.20
2023-04-26T08:22:37.786Z,70.20
2023-04-26T08:25:06.620Z,69.90
2023-04-26T08:27:35.902Z,68.90
2023-04-26T08:30:04.028Z,69.50
2023-04-26T08:32:34.047Z,68.90
2023-04-26T08:35:02.106Z,69.10
2023-04-26T08:37:30.143Z,69.10
2023-04-26T08:39:58.369Z,66.70
2023-04-26T08:42:29.935Z,66.70
2023-04-26T08:45:03.046Z,66.60
2023-04-26T08:47:39.678Z,67.60
2023-04-26T08:50:09.246Z,67.40
2023-04-26T08:52:37.999Z,67.70
2023-04-26T08:55:09.936Z,67.70
2023-04-26T08:57:38.007Z,66.90
2023-04-26T09:00:09.961Z,63.90
2023-04-26T09:02:41.341Z,66.70
2023-04-26T09:05:10.509Z,67.90
2023-04-26T09:07:42.303Z,68.90
2023-04-26T09:10:11.452Z,69.30
2023-04-26T09:12:40.442Z,69.40
2023-04-26T09:15:09.493Z,68.00
2023-04-26T09:17:41.585Z,67.80
2023-04-26T09:20:21.100Z,66.80
2023-04-26T09:22:50.031Z,66.30
2023-04-26T09:25:19.814Z,67.00
2023-04-26T09:27:47.791Z,67.70
2023-04-26T09:30:18.327Z,66.30
2023-04-26T09:32:53.525Z,64.90
2023-04-26T09:35:30.353Z,64.60
2023-04-26T09:38:04.707Z,64.50
2023-04-26T09:40:38.595Z,64.40
2023-04-26T09:43:07.853Z,66.60
2023-04-26T09:45:46.449Z,67.10
2023-04-26T09:48:22.192Z,67.40
2023-04-26T09:50:53.300Z,65.50
2023-04-26T09:53:29.155Z,64.40
2023-04-26T09:55:58.131Z,64.00
2023-04-26T09:58:26.804Z,63.00
2023-04-26T10:00:55.816Z,63.90
2023-04-26T10:03:27.145Z,64.60
2023-04-26T10:05:55.897Z,64.90
2023-04-26T10:08:24.310Z,64.80
2023-04-26T10:10:52.603Z,64.30
2023-04-26T10:13:20.792Z,64.20
2023-04-26T10:15:49.224Z,63.20
2023-04-26T10:18:17.379Z,62.30
2023-04-26T10:20:53.008Z,65.90
2023-04-26T10:23:22.400Z,65.10
2023-04-26T10:25:50.600Z,65.70
2023-04-26T10:28:19.315Z,65.80
2023-04-26T10:30:57.222Z,65.40
2023-04-26T10:33:26.355Z,64.00
2023-04-26T10:36:06.954Z,64.50
2023-04-26T10:38:36.364Z,64.00
2023-04-26T10:41:32.594Z,63.40
2023-04-26T10:44:03.164Z,63.50
2023-04-26T10:46:37.354Z,62.80
2023-04-26T10:49:17.016Z,61.60
2023-04-26T10:52:15.043Z,62.30
2023-04-26T10:54:47.654Z,63.30
2023-04-26T10:57:15.958Z,63.70
2023-04-26T11:00:17.770Z,62.80
2023-04-26T11:02:46.971Z,63.20
2023-04-26T11:05:38.633Z,62.80
2023-04-26T11:08:09.998Z,63.20
2023-04-26T11:10:41.109Z,62.80
2023-04-26T11:13:09.433Z,62.00
2023-04-26T11:15:37.449Z,61.40
2023-04-26T11:18:06.418Z,60.20
2023-04-26T11:20:34.919Z,61.50
2023-04-26T11:23:03.039Z,62.60
2023-04-26T11:25:32.666Z,63.20
2023-04-26T11:28:01.885Z,62.90
2023-04-26T11:30:31.726Z,63.20
2023-04-26T11:33:00.582Z,62.60
2023-04-26T11:35:29.895Z,63.00
2023-04-26T11:38:00.928Z,62.30
2023-04-26T11:40:31.390Z,61.90
2023-04-26T11:43:05.744Z,61.90
2023-04-26T11:45:35.866Z,61.80
2023-04-26T11:48:05.417Z,60.80
2023-04-26T11:50:35.256Z,57.00
2023-04-26T11:53:05.897Z,57.90
2023-04-26T11:55:35.917Z,58.70
2023-04-26T11:58:13.729Z,57.90
2023-04-26T12:00:58.272Z,57.40
2023-04-26T12:03:31.164Z,58.10
2023-04-26T12:05:59.407Z,58.40
2023-04-26T12:08:28.009Z,58.80
2023-04-26T12:10:59.826Z,58.10
2023-04-26T12:13:29.639Z,57.60
2023-04-26T12:15:57.623Z,57.40
2023-04-26T12:18:31.626Z,57.10
2023-04-26T12:21:00.452Z,57.20
2023-04-26T12:23:39.082Z,56.70
2023-04-26T12:26:10.638Z,56.40
2023-04-26T12:28:40.124Z,55.90
2023-04-26T12:31:08.356Z,56.90
2023-04-26T12:33:37.150Z,56.80
2023-04-26T12:36:09.808Z,56.20
2023-04-26T12:38:37.957Z,55.60
2023-04-26T12:41:06.255Z,56.00
2023-04-26T12:43:34.336Z,56.50
2023-04-26T12:46:03.792Z,56.40
2023-04-26T12:48:31.861Z,56.10
2023-04-26T12:51:00.298Z,55.40
2023-04-26T12:53:28.387Z,55.20
2023-04-26T12:55:56.446Z,54.00
2023-04-26T12:58:25.356Z,54.00
2023-04-26T13:00:53.464Z,54.30
2023-04-26T13:03:23.012Z,54.10
2023-04-26T13:05:51.734Z,53.10
2023-04-26T13:08:19.771Z,52.90
2023-04-26T13:10:47.780Z,51.90
2023-04-26T13:13:16.133Z,52.50
2023-04-26T13:15:44.309Z,52.60
2023-04-26T13:18:12.763Z,53.20
2023-04-26T13:20:42.350Z,53.70
2023-04-26T13:23:11.240Z,53.70
2023-04-26T13:25:39.528Z,56.00
2023-04-26T13:28:07.550Z,56.40
2023-04-26T13:30:35.592Z,56.40
2023-04-26T13:33:04.803Z,57.00
2023-04-26T13:35:32.913Z,57.10
2023-04-26T13:38:02.285Z,57.20
2023-04-26T13:40:30.325Z,57.40
2023-04-26T13:42:58.386Z,54.70
2023-04-26T13:45:26.402Z,54.30
2023-04-26T13:47:54.546Z,55.40
2023-04-26T13:50:22.777Z,55.40
2023-04-26T13:52:52.987Z,54.50
2023-04-26T13:55:22.723Z,54.50
2023-04-26T13:57:51.017Z,54.20
2023-04-26T14:00:19.721Z,53.70
2023-04-26T14:02:48.570Z,54.50
2023-04-26T14:05:17.775Z,55.50
2023-04-26T14:07:45.839Z,55.90
2023-04-26T14:10:14.171Z,56.70
2023-04-26T14:12:45.540Z,56.10
2023-04-26T14:15:13.673Z,56.40
2023-04-26T14:17:42.003Z,57.00
2023-04-26T14:20:11.100Z,56.50
2023-04-26T14:22:39.276Z,56.30
2023-04-26T14:25:08.112Z,56.10
2023-04-26T14:27:36.581Z,55.60
2023-04-26T14:30:07.271Z,54.90
2023-04-26T14:32:35.550Z,55.10
2023-04-26T14:35:03.818Z,54.70
2023-04-26T14:37:31.926Z,54.90
2023-04-26T14:39:59.989Z,54.60
2023-04-26T14:42:27.983Z,54.60
2023-04-26T14:44:56.030Z,54.10
2023-04-26T14:47:25.599Z,54.40
2023-04-26T14:49:53.659Z,54.00
2023-04-26T14:52:21.948Z,54.00
2023-04-26T14:54:51.727Z,53.90
2023-04-26T14:57:19.973Z,54.30
2023-04-26T14:59:48.082Z,55.00
2023-04-26T15:02:16.334Z,55.30
2023-04-26T15:04:46.057Z,54.80
2023-04-26T15:07:24.790Z,54.20
2023-04-26T15:09:59.683Z,52.60
2023-04-26T15:12:27.933Z,52.00
2023-04-26T15:14:56.137Z,50.80
2023-04-26T15:17:24.206Z,50.20
2023-04-26T15:19:53.632Z,51.20
2023-04-26T15:22:21.631Z,51.20
2023-04-26T15:24:50.903Z,51.00
2023-04-26T15:27:19.080Z,50.30
2023-04-26T15:29:47.015Z,50.20
2023-04-26T15:32:15.015Z,49.30
2023-04-26T15:34:45.032Z,49.00
2023-04-26T15:37:14.657Z,47.60
2023-04-26T15:39:42.667Z,46.00
2023-04-26T15:42:11.178Z,46.50
2023-04-26T15:44:39.180Z,46.00
2023-04-26T15:47:07.201Z,46.60
2023-04-26T15:49:35.262Z,45.70
2023-04-26T15:52:03.249Z,46.80
2023-04-26T15:54:32.545Z,46.90
2023-04-26T15:57:00.544Z,46.70
2023-04-26T15:59:30.022Z,47.60
2023-04-26T16:01:58.108Z,48.70
2023-04-26T16:04:26.385Z,49.40
2023-04-26T16:06:54.497Z,49.70
2023-04-26T16:09:25.365Z,49.70
2023-04-26T16:11:55.314Z,49.00
2023-04-26T16:14:23.474Z,47.80
2023-04-26T16:16:51.506Z,46.90
2023-04-26T16:19:19.529Z,46.60
2023-04-26T16:21:47.986Z,47.30
2023-04-26T16:24:16.361Z,47.60
2023-04-26T16:26:44.352Z,47.80
2023-04-26T16:29:14.182Z,47.70
2023-04-26T16:31:42.329Z,47.30
2023-04-26T16:34:10.425Z,47.10
2023-04-26T16:36:38.601Z,45.90
2023-04-26T16:39:07.537Z,44.50
2023-04-26T16:41:35.554Z,43.50
2023-04-26T16:44:03.489Z,42.70
2023-04-26T16:46:32.804Z,42.40
2023-04-26T16:49:00.931Z,42.70
2023-04-26T16:51:28.954Z,42.80
2023-04-26T16:53:56.946Z,43.10
2023-04-26T16:56:24.975Z,43.60
2023-04-26T16:58:53.186Z,44.20
2023-04-26T17:01:21.231Z,44.60
2023-04-26T17:03:52.029Z,45.10
2023-04-26T17:06:20.344Z,45.50
2023-04-26T17:08:48.477Z,46.20
2023-04-26T17:11:17.122Z,46.80
2023-04-26T17:13:45.262Z,47.50
2023-04-26T17:16:13.326Z,47.90
2023-04-26T17:18:41.757Z,48.40
2023-04-26T17:21:11.184Z,48.80
2023-04-26T17:23:39.227Z,49.30
2023-04-26T17:26:08.116Z,49.70
2023-04-26T17:28:38.772Z,49.90
2023-04-26T17:31:06.872Z,50.20
2023-04-26T17:33:34.776Z,50.50
2023-04-26T17:36:02.774Z,50.70
2023-04-26T17:38:33.369Z,50.90
2023-04-26T17:41:01.444Z,51.60
2023-04-26T17:43:29.454Z,51.80
2023-04-26T17:45:57.624Z,52.10
2023-04-26T17:48:25.869Z,52.50
2023-04-26T17:50:54.252Z,52.60
2023-04-26T17:53:22.434Z,52.80
2023-04-26T17:55:53.060Z,53.00
2023-04-26T17:58:21.273Z,53.20
2023-04-26T18:00:50.056Z,53.40
2023-04-26T18:03:20.279Z,53.70
2023-04-26T18:05:48.710Z,54.10
2023-04-26T18:08:16.813Z,54.20
2023-04-26T18:10:46.137Z,54.60
2023-04-26T18:13:17.075Z,54.60
2023-04-26T18:15:45.295Z,54.80
2023-04-26T18:18:13.434Z,54.90
2023-04-26T18:20:41.517Z,55.10
2023-04-26T18:23:09.514Z,55.30
2023-04-26T18:25:37.522Z,55.50
2023-04-26T18:28:05.597Z,55.50
2023-04-26T18:30:35.067Z,55.80
2023-04-26T18:33:03.757Z,55.90
2023-04-26T18:35:31.953Z,56.20
2023-04-26T18:37:59.970Z,56.30
2023-04-26T18:40:27.941Z,56.50
2023-04-26T18:42:56.191Z,56.60
2023-04-26T18:45:24.209Z,56.60
2023-04-26T18:47:55.324Z,56.90
2023-04-26T18:50:23.576Z,56.80
2023-04-26T18:52:51.602Z,56.80
2023-04-26T18:55:19.826Z,56.90
2023-04-26T18:57:47.827Z,56.70
2023-04-26T19:00:16.513Z,56.80
2023-04-26T19:02:44.785Z,56.60
2023-04-26T19:05:14.593Z,56.60
2023-04-26T19:07:42.708Z,56.70
2023-04-26T19:10:11.572Z,56.70
2023-04-26T19:12:39.600Z,56.80
2023-04-26T19:15:08.788Z,57.10
2023-04-26T19:17:37.327Z,57.00
2023-04-26T19:20:09.066Z,56.90
2023-04-26T19:22:38.485Z,57.10
2023-04-26T19:25:07.292Z,57.10
2023-04-26T19:27:35.258Z,57.10
2023-04-26T19:30:03.326Z,57.00
2023-04-26T19:32:31.429Z,57.20
2023-04-26T19:34:59.468Z,57.20
2023-04-26T19:37:27.551Z,57.20
2023-04-26T19:39:56.992Z,57.50
2023-04-26T19:42:24.992Z,57.50
2023-04-26T19:44:53.488Z,57.70
2023-04-26T19:47:21.585Z,57.80
2023-04-26T19:49:51.571Z,57.70
2023-04-26T19:52:19.566Z,57.80
2023-04-26T19:54:47.592Z,57.80
2023-04-26T19:57:17.269Z,57.90
2023-04-26T19:59:45.245Z,57.80
2023-04-26T20:02:13.549Z,58.00
2023-04-26T20:04:42.715Z,58.20
2023-04-26T20:07:11.218Z,58.00
2023-04-26T20:09:39.385Z,58.40
2023-04-26T20:12:07.503Z,58.40
2023-04-26T20:14:37.378Z,58.50
2023-04-26T20:17:05.817Z,58.10
2023-04-26T20:19:34.156Z,57.90
2023-04-26T20:22:02.218Z,58.00
2023-04-26T20:24:30.233Z,58.20
2023-04-26T20:26:58.294Z,58.20
2023-04-26T20:29:26.336Z,58.60
2023-04-26T20:31:55.737Z,58.40
2023-04-26T20:34:23.828Z,58.50
2023-04-26T20:36:52.241Z,58.50
2023-04-26T20:39:21.770Z,58.50
2023-04-26T20:41:49.798Z,58.30
2023-04-26T20:44:17.885Z,58.60
2023-04-26T20:46:45.994Z,58.60
2023-04-26T20:49:15.748Z,58.60
2023-04-26T20:51:43.684Z,58.90
2023-04-26T20:54:11.690Z,59.00
2023-04-26T20:56:39.670Z,59.00
2023-04-26T20:59:08.221Z,59.10
2023-04-26T21:01:36.607Z,59.40
2023-04-26T21:04:04.884Z,59.60
2023-04-26T21:06:34.473Z,59.70
2023-04-26T21:09:02.491Z,60.00
2023-04-26T21:11:30.802Z,60.20
2023-04-26T21:13:58.907Z,60.30
2023-04-26T21:16:27.338Z,60.70
2023-04-26T21:18:55.372Z,60.60
2023-04-26T21:21:23.382Z,60.50
2023-04-26T21:23:52.722Z,60.70
2023-04-26T21:26:20.696Z,60.80
2023-04-26T21:28:48.749Z,60.90
2023-04-26T21:31:16.879Z,60.80
2023-04-26T21:33:44.944Z,60.80
2023-04-26T21:36:12.867Z,60.70
2023-04-26T21:38:40.906Z,61.00
2023-04-26T21:41:10.565Z,61.20
2023-04-26T21:43:38.631Z,61.10
2023-04-26T21:46:08.025Z,61.20
2023-04-26T21:48:36.520Z,61.20
2023-04-26T21:51:04.835Z,61.30
2023-04-26T21:53:32.764Z,61.50
2023-04-26T21:56:00.786Z,61.70
2023-04-26T21:58:30.137Z,61.80
2023-04-26T22:01:07.752Z,62.00
2023-04-26T22:03:35.870Z,62.00
2023-04-26T22:06:04.051Z,62.00
2023-04-26T22:08:32.014Z,62.10
2023-04-26T22:11:00.071Z,62.30
2023-04-26T22:13:29.543Z,62.10
2023-04-26T22:15:57.691Z,62.40
2023-04-26T22:18:26.458Z,62.60
2023-04-26T22:20:54.508Z,62.60
2023-04-26T22:23:22.514Z,62.70
2023-04-26T22:25:50.560Z,62.90
2023-04-26T22:28:18.647Z,62.80
2023-04-26T22:30:48.111Z,62.80
2023-04-26T22:33:16.766Z,63.20
2023-04-26T22:35:45.676Z,63.20
2023-04-26T22:38:13.666Z,63.40
2023-04-26T22:40:41.976Z,63.60
2023-04-26T22:43:10.073Z,63.70
2023-04-26T22:45:38.163Z,63.70
2023-04-26T22:48:07.756Z,63.70
2023-04-26T22:50:35.910Z,63.90
2023-04-26T22:53:03.953Z,64.00
2023-04-26T22:55:32.225Z,64.00
2023-04-26T22:58:00.459Z,64.10
2023-04-26T23:00:28.496Z,64.10
2023-04-26T23:02:56.673Z,64.20
2023-04-26T23:05:26.238Z,64.40
2023-04-26T23:07:54.283Z,64.50
2023-04-26T23:10:22.564Z,64.90
2023-04-26T23:12:50.976Z,65.10
2023-04-26T23:15:19.097Z,65.00
2023-04-26T23:17:47.097Z,65.10
2023-04-26T23:20:15.844Z,65.20
2023-04-26T23:22:45.346Z,65.40
2023-04-26T23:25:13.336Z,65.50
2023-04-26T23:27:41.369Z,65.60
2023-04-26T23:30:10.078Z,65.60
2023-04-26T23:32:38.235Z,65.30
2023-04-26T23:35:06.853Z,65.60
2023-04-26T23:37:34.801Z,65.60
2023-04-26T23:40:06.232Z,65.70
2023-04-26T23:42:34.223Z,66.00
2023-04-26T23:45:02.183Z,66.40
2023-04-26T23:47:31.873Z,66.50
2023-04-26T23:50:00.146Z,66.60
2023-04-26T23:52:28.107Z,66.80
2023-04-26T23:54:56.349Z,67.00
2023-04-26T23:57:25.811Z,67.30
2023-04-26T23:59:53.798Z,67.40
